Time;durP1;ratioP1;P1;durP2;ratioP2;P2;SDS_P1;SDS_P2;PMS_P1;PMS_P2;Temp;Humidity;BMP_temperature;BMP_pressure;BME280_temperature;BME280_humidity;BME280_pressure;Samples;Min_cycle;Max_cycle;Signal;HPM_P1;HPM_P2
2022/03/26 00:00:25;;;;;;;24.82;10.85;;;;;;;2.63;65.11;148326.95;1820722;78;21583;-63
2022/03/26 00:02:52;;;;;;;24.52;11.35;;;;;;;2.63;65.18;148326.95;1820769;78;21472;-63
2022/03/26 00:05:21;;;;;;;22.25;10.60;;;;;;;2.60;65.22;148319.22;1820358;77;21047;-63
2022/03/26 00:07:49;;;;;;;25.52;11.05;;;;;;;2.54;65.15;148306.34;1820886;78;20880;-63
2022/03/26 00:10:16;;;;;;;23.83;11.97;;;;;;;2.54;65.15;148306.34;1820478;77;21238;-64
2022/03/26 00:12:43;;;;;;;22.00;10.75;;;;;;;2.53;65.43;148303.70;1821167;78;20970;-63
2022/03/26 00:15:12;;;;;;;20.95;11.28;;;;;;;2.46;65.73;148285.67;1820912;78;21480;-63
2022/03/26 00:17:41;;;;;;;30.40;12.03;;;;;;;2.46;65.73;148285.67;1821302;78;21529;-60
2022/03/26 00:20:09;;;;;;;25.70;11.75;;;;;;;2.47;65.82;148288.25;1821227;78;21078;-63
2022/03/26 00:22:37;;;;;;;22.85;11.43;;;;;;;2.47;65.85;148288.25;1821305;78;21187;-63
2022/03/26 00:25:06;;;;;;;24.82;11.43;;;;;;;2.45;65.94;148283.09;1820617;78;20939;-63
2022/03/26 00:27:33;;;;;;;25.75;11.65;;;;;;;2.43;66.16;148277.94;1820762;78;21059;-63
2022/03/26 00:30:03;;;;;;;25.17;11.57;;;;;;;2.43;66.16;148277.94;1820330;78;20952;-61
2022/03/26 00:32:31;;;;;;;25.12;12.07;;;;;;;2.41;66.35;148274.05;1820922;77;21027;-62
2022/03/26 00:35:00;;;;;;;24.47;12.47;;;;;;;2.41;66.28;148272.78;1820450;78;21855;-63
2022/03/26 00:37:28;;;;;;;30.92;13.32;;;;;;;2.37;66.28;148262.48;1820599;78;21221;-63
2022/03/26 00:39:55;;;;;;;27.32;12.58;;;;;;;2.33;66.49;148252.17;1820740;78;20893;-63
2022/03/26 00:42:23;;;;;;;25.75;12.60;;;;;;;2.27;66.62;148239.25;1820790;77;21035;-62
2022/03/26 00:44:50;;;;;;;32.05;13.50;;;;;;;2.21;66.82;148223.78;1821238;78;21079;-62
2022/03/26 00:47:17;;;;;;;31.93;13.38;;;;;;;2.17;66.96;148213.47;1820793;78;21364;-63
2022/03/26 00:49:44;;;;;;;26.17;13.20;;;;;;;2.14;67.32;148205.75;1821103;78;20916;-64
2022/03/26 00:52:11;;;;;;;27.58;12.75;;;;;;;2.12;67.58;148200.59;1820849;77;20956;-62
2022/03/26 00:54:40;;;;;;;27.62;12.98;;;;;;;2.09;67.66;148192.81;1821097;78;21051;-60
2022/03/26 00:57:07;;;;;;;28.23;12.53;;;;;;;2.05;67.83;148182.52;1820588;78;21003;-60
2022/03/26 00:59:35;;;;;;;27.37;13.93;;;;;;;2.00;68.02;148172.22;1820775;78;21986;-60
2022/03/26 01:02:04;;;;;;;29.98;14.00;;;;;;;1.96;68.30;148161.91;1820912;78;20955;-60
2022/03/26 01:04:32;;;;;;;30.45;14.10;;;;;;;1.94;68.67;148156.75;1820598;78;21071;-59
2022/03/26 01:06:59;;;;;;;25.97;13.45;;;;;;;1.94;68.98;148156.75;1821440;78;20861;-60
2022/03/26 01:09:26;;;;;;;28.27;13.43;;;;;;;1.92;69.12;148151.59;1820873;78;20940;-61
2022/03/26 01:11:55;;;;;;;29.25;14.65;;;;;;;1.91;69.29;148149.03;1821058;78;20904;-60
2022/03/26 01:14:22;;;;;;;29.52;14.45;;;;;;;1.86;69.50;148136.09;1820740;78;21429;-59
2022/03/26 01:16:51;;;;;;;28.00;14.23;;;;;;;1.88;69.75;148141.30;1820975;78;21034;-62
2022/03/26 01:19:20;;;;;;;34.78;15.40;;;;;;;1.87;70.20;148138.67;1820432;78;21043;-62
2022/03/26 01:21:47;;;;;;;28.35;14.43;;;;;;;1.88;70.16;148139.98;1821093;78;21323;-60
2022/03/26 01:24:14;;;;;;;30.57;14.20;;;;;;;1.85;70.38;148134.84;1820979;78;21226;-62
2022/03/26 01:26:42;;;;;;;29.70;15.18;;;;;;;1.84;70.49;148130.95;1821107;77;20968;-62
2022/03/26 01:29:09;;;;;;;29.45;14.10;;;;;;;1.81;70.91;148123.22;1820771;78;21020;-62
2022/03/26 01:31:37;;;;;;;28.27;15.18;;;;;;;1.79;70.88;148118.06;1821085;78;21055;-62
2022/03/26 01:34:05;;;;;;;30.08;14.85;;;;;;;1.77;71.09;148114.23;1820452;78;20948;-63
2022/03/26 01:36:32;;;;;;;28.12;14.58;;;;;;;1.75;71.33;148107.77;1820399;78;21234;-63
2022/03/26 01:38:59;;;;;;;30.08;15.90;;;;;;;1.73;71.41;148102.63;1820384;78;21386;-62
2022/03/26 01:41:26;;;;;;;30.88;16.37;;;;;;;1.69;71.27;148094.89;1820583;78;21004;-61
2022/03/26 01:43:54;;;;;;;31.62;16.02;;;;;;;1.64;71.64;148081.97;1820556;78;21027;-60
2022/03/26 01:46:22;;;;;;;31.93;15.70;;;;;;;1.64;72.16;148081.97;1820454;78;21004;-61
2022/03/26 01:48:51;;;;;;;37.13;14.85;;;;;;;1.62;71.96;148075.56;1820839;78;20908;-60
2022/03/26 01:51:20;;;;;;;33.42;16.17;;;;;;;1.59;71.95;148067.83;1820727;77;20995;-60
2022/03/26 01:53:52;;;;;;;33.73;16.67;;;;;;;1.54;72.35;148056.22;1820710;78;20955;-60
2022/03/26 01:56:21;;;;;;;32.63;16.07;;;;;;;1.53;72.60;148054.91;1820246;78;21032;-63
2022/03/26 01:58:50;;;;;;;32.28;15.78;;;;;;;1.51;72.82;148049.75;1820540;78;21004;-62
2022/03/26 02:01:17;;;;;;;31.42;15.63;;;;;;;1.48;72.62;148040.77;1820339;78;21119;-59
2022/03/26 02:03:44;;;;;;;29.10;15.58;;;;;;;1.42;72.64;148027.84;1820351;78;20920;-62
2022/03/26 02:06:12;;;;;;;31.75;15.43;;;;;;;1.36;73.24;148012.39;1820053;78;21004;-63
2022/03/26 02:08:39;;;;;;;31.90;17.00;;;;;;;1.35;73.67;148009.81;1820490;78;21009;-61
2022/03/26 02:11:07;;;;;;;29.52;15.32;;;;;;;1.34;73.94;148005.98;1820261;78;21129;-60
2022/03/26 02:13:55;;;;;;;35.58;16.75;;;;;;;1.32;73.98;148000.78;1816093;78;21840;-60
2022/03/26 02:16:24;;;;;;;34.35;17.32;;;;;;;1.27;73.86;147989.23;1811298;78;21851;-60
2022/03/26 02:18:52;;;;;;;36.95;17.25;;;;;;;1.23;74.25;147978.94;1810715;79;20917;-60
2022/03/26 02:21:20;;;;;;;33.35;17.40;;;;;;;1.20;74.28;147971.16;1811175;79;21032;-60
2022/03/26 02:23:48;;;;;;;33.92;16.95;;;;;;;1.14;74.21;147958.28;1810812;79;21020;-59
2022/03/26 02:26:17;;;;;;;37.50;18.15;;;;;;;1.07;74.43;147940.27;1810817;79;21489;-62
2022/03/26 02:28:45;;;;;;;35.13;18.42;;;;;;;1.02;74.68;147926.09;1811328;78;21024;-60
2022/03/26 02:31:16;;;;;;;39.27;19.12;;;;;;;0.96;75.25;147913.22;1811258;79;21032;-60
2022/03/26 02:33:43;;;;;;;40.28;20.08;;;;;;;0.93;75.44;147904.19;1811662;78;20932;-63
2022/03/26 02:36:10;;;;;;;41.05;20.95;;;;;;;0.89;75.86;147893.89;1811440;79;20960;-62
2022/03/26 02:38:38;;;;;;;42.80;20.43;;;;;;;0.86;76.07;147887.44;1811570;79;21175;-62
2022/03/26 02:41:05;;;;;;;40.80;20.08;;;;;;;0.83;76.75;147881.03;1811135;78;21020;-62
2022/03/26 02:43:32;;;;;;;37.73;19.35;;;;;;;0.80;76.80;147873.31;1811398;78;21012;-61
2022/03/26 02:46:00;;;;;;;35.08;18.48;;;;;;;0.76;77.31;147861.70;1811419;79;21020;-62
2022/03/26 02:48:28;;;;;;;36.80;18.42;;;;;;;0.75;78.10;147859.12;1811356;79;21337;-62
2022/03/26 02:50:56;;;;;;;39.70;19.35;;;;;;;0.75;77.99;147860.39;1811243;78;21458;-64
2022/03/26 02:53:25;;;;;;;36.05;19.02;;;;;;;0.73;78.25;147855.25;1811389;78;21011;-62
2022/03/26 02:55:52;;;;;;;34.98;18.07;;;;;;;0.72;78.54;147852.67;1811308;79;20989;-62
2022/03/26 02:58:19;;;;;;;35.63;17.50;;;;;;;0.70;78.72;147848.84;1810927;79;21430;-61
2022/03/26 03:00:47;;;;;;;40.48;19.30;;;;;;;0.69;78.85;147846.25;1811359;79;21362;-63
2022/03/26 03:03:15;;;;;;;36.28;18.35;;;;;;;0.69;78.92;147846.25;1811382;78;21169;-62
2022/03/26 03:05:46;;;;;;;39.20;17.98;;;;;;;0.66;79.34;147838.55;1811536;79;21004;-63
2022/03/26 03:08:16;;;;;;;38.33;17.52;;;;;;;0.66;79.24;147837.23;1811505;78;20940;-63
2022/03/26 03:10:43;;;;;;;38.58;18.82;;;;;;;0.63;79.20;147829.52;1811244;77;21042;-63
2022/03/26 03:13:12;;;;;;;37.88;16.50;;;;;;;0.60;79.14;147821.78;1812805;78;21090;-64
2022/03/26 03:15:41;;;;;;;34.83;17.20;;;;;;;0.59;79.09;147819.22;1820536;77;21230;-61
2022/03/26 03:18:08;;;;;;;32.65;17.32;;;;;;;0.56;79.12;147812.77;1820305;77;21426;-61
2022/03/26 03:20:36;;;;;;;32.80;16.93;;;;;;;0.53;79.23;147806.31;1820721;78;21110;-59
2022/03/26 03:23:03;;;;;;;49.00;18.67;;;;;;;0.52;79.75;147802.47;1820615;78;21018;-61
2022/03/26 03:25:31;;;;;;;31.80;16.40;;;;;;;0.51;80.09;147801.16;1820027;78;21043;-63
2022/03/26 03:27:58;;;;;;;35.60;17.27;;;;;;;0.51;80.62;147801.16;1820060;78;21197;-60
2022/03/26 03:30:26;;;;;;;34.60;17.50;;;;;;;0.53;81.16;147806.31;1820048;78;21035;-61
2022/03/26 03:32:54;;;;;;;35.05;17.30;;;;;;;0.53;81.22;147806.31;1819967;78;20956;-61
2022/03/26 03:35:23;;;;;;;39.35;17.57;;;;;;;0.55;81.61;147811.50;1819652;78;21050;-60
2022/03/26 03:37:50;;;;;;;37.93;17.85;;;;;;;0.60;82.19;147821.78;1820438;78;21386;-63
2022/03/26 03:40:18;;;;;;;38.05;17.23;;;;;;;0.63;81.79;147830.78;1819898;78;21226;-60
2022/03/26 03:42:45;;;;;;;36.73;18.52;;;;;;;0.65;82.08;147834.66;1820110;78;21059;-60
2022/03/26 03:45:12;;;;;;;35.63;16.70;;;;;;;0.66;81.71;147838.55;1819925;78;21023;-61
2022/03/26 03:47:40;;;;;;;36.17;18.23;;;;;;;0.66;81.66;147838.55;1820248;78;21445;-62
2022/03/26 03:50:08;;;;;;;36.03;18.48;;;;;;;0.62;81.48;147828.20;1795609;79;20933;-59
2022/03/26 03:52:36;;;;;;;33.05;17.45;;;;;;;0.59;81.80;147820.48;1795627;79;21266;-61
2022/03/26 03:55:05;;;;;;;36.68;18.55;;;;;;;0.60;82.33;147821.78;1795234;79;21064;-60
2022/03/26 03:57:32;;;;;;;35.28;16.90;;;;;;;0.59;82.47;147819.22;1795667;79;21277;-59
2022/03/26 03:59:59;;;;;;;37.23;16.70;;;;;;;0.61;82.94;147824.37;1818479;78;21753;-60
2022/03/26 04:02:27;;;;;;;35.15;17.42;;;;;;;0.64;83.38;147832.08;1820124;78;21098;-60
2022/03/26 04:04:54;;;;;;;35.20;18.75;;;;;;;0.68;83.29;147842.38;1820008;78;20947;-60
2022/03/26 04:07:21;;;;;;;39.13;19.07;;;;;;;0.72;83.21;147852.67;1820248;78;21003;-61
2022/03/26 04:09:50;;;;;;;33.20;18.00;;;;;;;0.75;83.06;147859.12;1820733;77;21055;-60
2022/03/26 04:12:17;;;;;;;32.58;16.97;;;;;;;0.78;83.00;147866.84;1820221;77;21043;-60
2022/03/26 04:14:45;;;;;;;35.88;18.27;;;;;;;0.81;83.26;147874.56;1820794;78;21489;-60
2022/03/26 04:17:12;;;;;;;34.48;18.48;;;;;;;0.84;83.12;147883.59;1820333;78;21272;-60
2022/03/26 04:19:40;;;;;;;38.10;18.95;;;;;;;0.88;83.11;147892.58;1820646;78;21035;-62
2022/03/26 04:22:07;;;;;;;38.80;19.23;;;;;;;0.93;82.98;147904.19;1820247;78;21030;-61
2022/03/26 04:24:36;;;;;;;37.00;18.52;;;;;;;0.99;82.71;147919.63;1820076;78;21070;-60
2022/03/26 04:27:04;;;;;;;39.92;20.35;;;;;;;1.02;82.46;147927.41;1787964;78;21031;-63
2022/03/26 04:29:32;;;;;;;37.50;19.30;;;;;;;1.04;82.44;147931.23;1820235;78;21400;-62
2022/03/26 04:31:59;;;;;;;33.23;18.35;;;;;;;1.06;82.48;147937.69;1819998;78;20932;-62
2022/03/26 04:34:26;;;;;;;33.45;17.57;;;;;;;1.11;82.52;147950.56;1820090;78;20996;-62
2022/03/26 04:36:54;;;;;;;33.85;17.52;;;;;;;1.18;82.82;147966.02;1820166;78;21070;-61
2022/03/26 04:39:21;;;;;;;39.85;18.48;;;;;;;1.23;82.59;147980.19;1819885;78;21074;-61
2022/03/26 04:41:49;;;;;;;33.33;17.32;;;;;;;1.29;82.42;147994.38;1820496;78;21221;-61
2022/03/26 04:44:16;;;;;;;37.73;19.32;;;;;;;1.38;82.35;148016.28;1820131;78;20993;-62
2022/03/26 04:46:43;;;;;;;37.28;18.75;;;;;;;1.49;82.09;148043.34;1820747;78;20976;-62
2022/03/26 04:49:11;;;;;;;36.23;17.62;;;;;;;1.59;81.80;148069.09;1820156;78;21094;-61
2022/03/26 04:51:38;;;;;;;34.48;18.40;;;;;;;1.67;81.41;148089.75;1820515;78;21058;-61
2022/03/26 04:54:05;;;;;;;32.20;18.35;;;;;;;1.78;81.24;148115.50;1820119;78;22149;-60
2022/03/26 04:56:32;;;;;;;32.70;17.80;;;;;;;1.87;80.82;148138.67;1820317;78;21507;-59
2022/03/26 04:59:00;;;;;;;36.13;19.05;;;;;;;1.95;80.72;148159.33;1820359;78;20941;-61
2022/03/26 05:01:27;;;;;;;31.12;17.10;;;;;;;2.05;80.46;148182.52;1820130;78;20991;-63
2022/03/26 05:03:54;;;;;;;34.38;18.62;;;;;;;2.14;80.14;148205.75;1820490;78;21027;-62
2022/03/26 05:06:23;;;;;;;32.08;17.92;;;;;;;2.19;79.94;148218.62;1820248;77;21579;-62
2022/03/26 05:08:50;;;;;;;30.90;17.12;;;;;;;2.27;79.89;148239.25;1820531;78;21532;-62
2022/03/26 05:11:19;;;;;;;34.63;18.52;;;;;;;2.40;79.87;148270.20;1819939;78;21058;-62
2022/03/26 05:13:47;;;;;;;35.70;17.87;;;;;;;2.59;79.55;148317.91;1819370;77;21007;-62
2022/03/26 05:16:14;;;;;;;35.23;17.85;;;;;;;2.90;79.44;148394.02;1811403;79;21007;-62
2022/03/26 05:18:41;;;;;;;33.45;18.07;;;;;;;3.39;78.72;148517.88;1811438;79;21122;-61
2022/03/26 05:21:08;;;;;;;37.08;18.23;;;;;;;4.08;77.92;148688.27;1811046;79;20976;-63
2022/03/26 05:23:36;;;;;;;29.75;16.40;;;;;;;4.79;75.64;148866.56;1811096;79;21107;-62
2022/03/26 05:26:03;;;;;;;28.98;17.23;;;;;;;5.43;73.36;149025.48;1811395;78;21024;-62
2022/03/26 05:28:30;;;;;;;31.05;17.62;;;;;;;5.97;70.75;149161.25;1811808;79;21039;-61
2022/03/26 05:30:59;;;;;;;31.17;17.98;;;;;;;6.26;67.89;149233.70;1811629;78;21236;-63
2022/03/26 05:33:26;;;;;;;28.50;18.48;;;;;;;6.25;66.41;149231.13;1810890;79;21667;-62
2022/03/26 05:35:55;;;;;;;31.90;17.80;;;;;;;6.18;65.99;149213.03;1811620;79;20972;-63
2022/03/26 05:38:22;;;;;;;28.27;16.17;;;;;;;5.98;65.55;149163.83;1811285;79;22416;-62
2022/03/26 05:40:50;;;;;;;32.23;17.85;;;;;;;5.72;65.91;149099.19;1811898;79;21533;-61
2022/03/26 05:43:17;;;;;;;30.23;17.73;;;;;;;5.55;66.63;149055.22;1811504;79;21422;-62
2022/03/26 05:45:46;;;;;;;31.45;18.20;;;;;;;5.45;67.15;149030.66;1811979;79;21012;-62
2022/03/26 05:48:13;;;;;;;33.23;18.85;;;;;;;5.37;67.68;149011.25;1811365;79;21019;-63
2022/03/26 05:50:41;;;;;;;34.13;18.17;;;;;;;5.37;68.06;149011.25;1811754;79;21027;-63
2022/03/26 05:53:08;;;;;;;31.90;18.02;;;;;;;5.40;68.37;149019.00;1811649;79;21000;-63
2022/03/26 05:55:36;;;;;;;33.40;18.32;;;;;;;5.52;68.60;149047.47;1811639;79;21504;-63
2022/03/26 05:58:03;;;;;;;30.15;16.30;;;;;;;5.61;68.39;149070.72;1811273;79;21012;-63
2022/03/26 06:00:30;;;;;;;30.95;17.98;;;;;;;5.70;68.57;149094.02;1811644;79;21079;-62
2022/03/26 06:02:57;;;;;;;28.25;16.62;;;;;;;5.81;68.31;149119.86;1811439;78;21469;-62
2022/03/26 06:05:25;;;;;;;32.70;17.92;;;;;;;5.93;68.31;149149.59;1811194;79;21474;-63
2022/03/26 06:07:52;;;;;;;32.67;18.50;;;;;;;6.02;68.08;149174.22;1812148;79;21277;-62
2022/03/26 06:10:20;;;;;;;29.57;16.93;;;;;;;6.17;68.01;149210.44;1811235;77;21048;-62
2022/03/26 06:12:48;;;;;;;30.50;16.52;;;;;;;6.30;67.63;149244.09;1811452;78;21027;-62
2022/03/26 06:15:16;;;;;;;30.85;16.65;;;;;;;6.43;67.41;149275.11;1816653;78;21560;-62
2022/03/26 06:17:46;;;;;;;28.70;16.32;;;;;;;6.58;67.24;149313.94;1821046;78;21000;-61
2022/03/26 06:20:15;;;;;;;29.85;17.20;;;;;;;6.77;66.90;149360.53;1820813;78;20955;-62
2022/03/26 06:22:42;;;;;;;33.10;16.65;;;;;;;6.88;66.20;149388.97;1790322;78;21019;-62
2022/03/26 06:25:09;;;;;;;27.48;15.88;;;;;;;6.93;65.68;149399.31;1819747;78;21342;-61
2022/03/26 06:27:37;;;;;;;28.80;17.95;;;;;;;7.03;65.78;149426.50;1820245;78;21808;-62
2022/03/26 06:30:05;;;;;;;35.85;18.73;;;;;;;7.14;65.54;149453.67;1820786;78;21022;-60
2022/03/26 06:32:35;;;;;;;30.45;17.60;;;;;;;7.20;64.84;149467.92;1820200;77;21457;-60
2022/03/26 06:35:05;;;;;;;28.70;15.43;;;;;;;7.29;64.76;149491.25;1819809;78;21008;-60
2022/03/26 06:37:32;;;;;;;28.73;14.53;;;;;;;7.46;64.32;149532.64;1820272;78;22120;-60
2022/03/26 06:40:00;;;;;;;29.45;15.85;;;;;;;7.67;63.48;149585.75;1820060;77;21503;-60
2022/03/26 06:42:27;;;;;;;26.23;15.80;;;;;;;8.01;63.26;149671.20;1820225;78;21039;-60
2022/03/26 06:44:59;;;;;;;28.98;15.60;;;;;;;8.63;62.78;149824.13;1820072;78;21206;-60
2022/03/26 06:47:23;;;;;;;25.00;15.38;;;;;;;9.40;59.26;150017.27;1820173;77;21702;-60
2022/03/26 06:49:51;;;;;;;27.17;15.38;;;;;;;10.20;58.21;150218.28;1821194;78;21012;-60
2022/03/26 06:52:18;;;;;;;24.80;15.58;;;;;;;10.74;55.25;150353.31;1820803;78;21294;-60
2022/03/26 06:54:47;;;;;;;24.07;15.15;;;;;;;10.91;53.57;150396.13;1820882;78;20976;-60
2022/03/26 06:57:14;;;;;;;26.55;15.65;;;;;;;11.12;53.24;150449.33;1821079;78;21770;-60
2022/03/26 06:59:41;;;;;;;27.42;15.23;;;;;;;11.60;52.65;150568.78;1821654;77;21802;-59
2022/03/26 07:02:08;;;;;;;24.87;15.50;;;;;;;12.09;51.46;150690.95;1821499;77;21008;-60
2022/03/26 07:04:37;;;;;;;25.43;15.70;;;;;;;12.39;50.15;150767.61;1821285;78;21075;-61
2022/03/26 07:07:06;;;;;;;27.75;15.48;;;;;;;12.31;49.01;150746.80;1820850;78;20932;-60
2022/03/26 07:09:34;;;;;;;25.48;15.23;;;;;;;12.13;49.27;150701.34;1821170;78;21210;-60
2022/03/26 07:12:02;;;;;;;26.15;15.90;;;;;;;12.01;49.16;150672.73;1820712;78;21094;-61
2022/03/26 07:14:29;;;;;;;35.23;17.40;;;;;;;11.89;49.39;150641.53;1820483;78;21050;-62
2022/03/26 07:16:57;;;;;;;25.85;15.80;;;;;;;11.84;49.81;150628.56;1820723;78;20982;-63
2022/03/26 07:19:24;;;;;;;22.70;14.15;;;;;;;11.89;49.37;150641.53;1820468;78;20931;-62
2022/03/26 07:21:51;;;;;;;27.80;14.47;;;;;;;11.93;49.11;150650.59;1821031;78;21217;-62
2022/03/26 07:24:20;;;;;;;26.05;14.18;;;;;;;11.91;49.09;150646.73;1820900;78;20900;-62
2022/03/26 07:26:47;;;;;;;23.35;14.00;;;;;;;11.90;48.75;150644.13;1821365;78;20873;-62
2022/03/26 07:29:15;;;;;;;24.18;14.05;;;;;;;11.87;48.74;150637.63;1820548;78;21003;-62
2022/03/26 07:31:46;;;;;;;19.32;12.68;;;;;;;11.84;48.36;150629.83;1821162;78;21407;-60
2022/03/26 07:34:15;;;;;;;20.10;12.82;;;;;;;11.83;48.58;150627.23;1820539;78;21861;-64
2022/03/26 07:36:43;;;;;;;22.75;13.08;;;;;;;11.91;48.77;150646.73;1820817;77;21063;-64
2022/03/26 07:39:10;;;;;;;28.35;13.95;;;;;;;12.04;48.60;150680.53;1821165;78;21070;-61
2022/03/26 07:41:38;;;;;;;22.85;12.70;;;;;;;12.20;48.04;150719.50;1821131;78;20983;-61
2022/03/26 07:44:07;;;;;;;22.15;12.95;;;;;;;12.31;47.92;150746.80;1821229;78;21035;-62
2022/03/26 07:46:34;;;;;;;24.95;13.72;;;;;;;12.41;47.28;150771.48;1821022;78;22241;-64
2022/03/26 07:49:02;;;;;;;21.05;13.40;;;;;;;12.36;46.75;150758.50;1816351;78;20942;-60
2022/03/26 07:51:29;;;;;;;23.20;13.38;;;;;;;12.36;47.18;150758.50;1800977;79;21064;-60
2022/03/26 07:53:57;;;;;;;18.73;11.70;;;;;;;12.48;46.84;150789.66;1800638;79;21046;-61
2022/03/26 07:56:24;;;;;;;18.75;11.68;;;;;;;12.61;46.49;150823.47;1800756;79;21008;-62
2022/03/26 07:58:51;;;;;;;22.27;12.33;;;;;;;12.75;45.77;150858.55;1804130;78;21800;-61
2022/03/26 08:01:19;;;;;;;20.35;11.70;;;;;;;12.80;44.96;150870.27;1820456;77;22235;-59
2022/03/26 08:03:52;;;;;;;19.02;11.60;;;;;;;12.79;44.13;150867.66;1821287;78;21022;-60
2022/03/26 08:06:15;;;;;;;20.68;12.43;;;;;;;12.77;44.57;150861.16;1819973;78;21051;-60
2022/03/26 08:08:43;;;;;;;20.55;11.22;;;;;;;12.75;44.71;150857.28;1820929;78;21063;-62
2022/03/26 08:11:10;;;;;;;19.75;11.22;;;;;;;12.78;44.81;150865.06;1820605;78;22206;-60
2022/03/26 08:13:37;;;;;;;17.70;11.12;;;;;;;12.81;44.62;150872.86;1817968;78;20986;-60
2022/03/26 08:16:09;;;;;;;19.12;11.93;;;;;;;12.78;44.77;150865.06;1754808;78;21026;-60
2022/03/26 08:18:37;;;;;;;18.42;10.63;;;;;;;12.81;44.96;150872.86;1779643;78;21247;-63
2022/03/26 08:21:05;;;;;;;20.15;11.40;;;;;;;12.88;45.20;150891.03;1795490;79;21034;-63
2022/03/26 08:23:33;;;;;;;14.87;10.13;;;;;;;13.02;44.84;150926.13;1795829;79;21171;-62
2022/03/26 08:26:19;;;;;;;20.45;11.88;;;;;;;13.22;44.46;150974.27;1795598;79;21094;-62
2022/03/26 08:28:47;;;;;;;17.82;11.50;;;;;;;13.33;43.89;151002.84;1795794;79;21025;-62
2022/03/26 08:31:14;;;;;;;19.32;10.05;;;;;;;13.40;43.45;151021.08;1795477;79;21035;-63
2022/03/26 08:33:42;;;;;;;19.17;10.93;;;;;;;13.42;43.54;151024.95;1795763;79;21073;-63
2022/03/26 08:36:12;;;;;;;19.45;11.55;;;;;;;13.49;43.58;151041.92;1795632;79;21181;-60
2022/03/26 08:38:40;;;;;;;22.10;10.48;;;;;;;13.60;43.28;151070.55;1796001;79;20934;-61
2022/03/26 08:41:08;;;;;;;20.62;11.57;;;;;;;13.64;42.11;151079.62;1795749;79;21386;-63
2022/03/26 08:43:35;;;;;;;18.80;11.38;;;;;;;13.62;42.06;151075.75;1795929;79;21554;-63
2022/03/26 08:46:05;;;;;;;16.85;11.03;;;;;;;13.64;42.34;151080.94;1796300;79;20977;-62
2022/03/26 08:48:32;;;;;;;16.55;10.18;;;;;;;13.71;41.89;151099.14;1795475;79;22028;-62
2022/03/26 08:50:59;;;;;;;20.20;11.15;;;;;;;13.72;41.54;151101.73;1795528;79;21034;-62
2022/03/26 08:53:27;;;;;;;16.52;9.90;;;;;;;13.78;41.49;151116.06;1795353;79;21033;-60
2022/03/26 08:55:55;;;;;;;17.00;10.55;;;;;;;13.86;41.17;151135.58;1795615;79;21049;-61
2022/03/26 08:58:23;;;;;;;17.15;11.57;;;;;;;13.98;40.79;151166.77;1795466;79;21041;-60
2022/03/26 09:00:52;;;;;;;15.80;10.68;;;;;;;13.94;39.62;151156.38;1795766;79;21242;-61
2022/03/26 09:03:20;;;;;;;24.30;11.78;;;;;;;13.81;40.10;151122.53;1795772;79;21073;-63
2022/03/26 09:05:49;;;;;;;17.85;10.45;;;;;;;13.69;40.33;151093.94;1795901;79;21030;-62
2022/03/26 09:08:16;;;;;;;16.67;10.60;;;;;;;13.68;40.68;151091.34;1795600;79;21005;-60
2022/03/26 09:10:45;;;;;;;15.72;10.43;;;;;;;13.77;40.16;151113.45;1795642;79;21037;-60
2022/03/26 09:13:12;;;;;;;18.37;10.90;;;;;;;13.87;39.29;151138.17;1795428;79;21214;-60
2022/03/26 09:15:41;;;;;;;16.52;10.05;;;;;;;13.88;39.58;151140.77;1795683;79;20953;-61
2022/03/26 09:18:09;;;;;;;24.25;11.08;;;;;;;13.93;39.45;151153.77;1795420;79;21440;-63
2022/03/26 09:20:38;;;;;;;21.75;11.00;;;;;;;13.99;39.38;151169.36;1795535;79;21537;-63
2022/03/26 09:23:06;;;;;;;19.87;11.70;;;;;;;14.08;39.47;151190.20;1795293;79;20961;-61
2022/03/26 09:25:34;;;;;;;18.90;11.03;;;;;;;14.15;39.14;151208.41;1795168;79;21991;-61
2022/03/26 09:28:03;;;;;;;14.90;10.43;;;;;;;14.17;38.86;151214.92;1795130;79;21002;-61
2022/03/26 09:30:31;;;;;;;23.38;11.97;;;;;;;14.24;38.94;151230.53;1795629;79;21037;-63
2022/03/26 09:32:59;;;;;;;17.95;9.83;;;;;;;14.30;38.75;151247.45;1795934;79;20955;-62
2022/03/26 09:35:27;;;;;;;18.40;10.93;;;;;;;14.36;38.44;151261.72;1795889;79;20965;-63
2022/03/26 09:37:54;;;;;;;20.20;10.45;;;;;;;14.40;38.34;151272.17;1796002;79;21636;-63
2022/03/26 09:40:23;;;;;;;15.25;10.75;;;;;;;14.45;38.05;151283.84;1795614;79;21024;-60
2022/03/26 09:42:52;;;;;;;21.40;10.88;;;;;;;14.52;37.87;151300.78;1795988;79;21029;-60
2022/03/26 09:45:19;;;;;;;13.68;10.20;;;;;;;14.55;37.89;151309.91;1795672;79;21008;-61
2022/03/26 09:47:48;;;;;;;14.20;10.18;;;;;;;14.57;37.96;151313.78;1795496;79;21073;-63
2022/03/26 09:50:15;;;;;;;21.35;11.38;;;;;;;14.58;37.91;151317.70;1795766;79;21144;-62
2022/03/26 09:52:43;;;;;;;15.80;10.60;;;;;;;14.60;38.03;151322.91;1795522;79;21033;-62
2022/03/26 09:55:12;;;;;;;18.92;10.50;;;;;;;14.64;38.07;151330.70;1794889;79;21578;-62
2022/03/26 09:57:40;;;;;;;15.18;10.00;;;;;;;14.63;38.16;151329.44;1795408;79;21077;-59
2022/03/26 10:00:09;;;;;;;16.60;10.03;;;;;;;14.65;38.19;151334.63;1795929;79;20996;-62
2022/03/26 10:02:40;;;;;;;16.45;10.32;;;;;;;14.66;38.17;151337.23;1795641;79;21454;-60
2022/03/26 10:05:12;;;;;;;15.88;9.95;;;;;;;14.64;38.04;151330.70;1795270;79;21030;-60
2022/03/26 10:07:40;;;;;;;16.32;9.90;;;;;;;14.59;38.12;151320.31;1795297;79;21025;-62
2022/03/26 10:10:22;;;;;;;13.30;9.58;;;;;;;14.58;38.17;151316.38;1795575;79;21017;-60
2022/03/26 10:12:51;;;;;;;16.82;9.53;;;;;;;14.55;38.25;151309.91;1767812;79;21096;-60
2022/03/26 10:15:18;;;;;;;13.62;9.28;;;;;;;14.54;38.20;151305.97;1795025;79;21186;-60
2022/03/26 10:17:46;;;;;;;17.40;8.30;;;;;;;14.52;38.14;151302.11;1784724;80;21096;-61
2022/03/26 10:20:15;;;;;;;12.30;8.78;;;;;;;14.50;38.19;151296.91;1784314;80;20977;-60
2022/03/26 10:22:50;;;;;;;13.58;9.03;;;;;;;14.52;38.15;151300.78;1784414;80;21061;-61
2022/03/26 10:25:20;;;;;;;16.62;9.20;;;;;;;14.53;38.10;151304.70;1784673;79;21081;-61
2022/03/26 10:27:51;;;;;;;12.90;8.45;;;;;;;14.50;38.17;151296.91;1784273;80;21152;-60
2022/03/26 10:33:27;;;;;;;21.00;9.20;;;;;;;14.50;37.90;151296.91;1783822;80;20985;-61
2022/03/26 10:35:56;;;;;;;15.23;8.63;;;;;;;14.48;37.92;151291.70;1783762;80;21003;-61
2022/03/26 10:38:41;;;;;;;12.98;8.23;;;;;;;14.50;37.76;151296.91;1784102;80;21020;-62
2022/03/26 10:41:08;;;;;;;15.72;8.30;;;;;;;14.51;37.67;151299.50;1784390;80;21168;-63
2022/03/26 10:43:38;;;;;;;11.12;7.80;;;;;;;14.49;37.54;151294.30;1784321;80;21029;-63
2022/03/26 10:46:05;;;;;;;12.15;7.40;;;;;;;14.50;37.32;151295.58;1784822;80;20897;-63
2022/03/26 10:48:37;;;;;;;16.12;7.40;;;;;;;14.50;37.16;151296.91;1784033;80;21033;-62
2022/03/26 10:51:09;;;;;;;11.70;7.25;;;;;;;14.54;36.73;151307.30;1784287;80;21527;-63
2022/03/26 10:53:39;;;;;;;14.90;6.80;;;;;;;14.55;36.61;151309.91;1784633;80;21990;-63
2022/03/26 10:56:10;;;;;;;12.73;7.00;;;;;;;14.56;35.84;151312.50;1784485;80;20935;-62
2022/03/26 10:58:40;;;;;;;12.20;7.00;;;;;;;14.58;35.71;151317.70;1784380;80;21042;-63
2022/03/26 11:01:07;;;;;;;14.18;7.20;;;;;;;14.56;35.91;151311.19;1784578;80;20986;-62
2022/03/26 11:03:36;;;;;;;11.73;7.03;;;;;;;14.54;36.00;151307.30;1784218;80;21199;-62
2022/03/26 11:06:09;;;;;;;15.48;7.20;;;;;;;14.53;35.91;151304.70;1784697;80;21271;-62
2022/03/26 11:08:38;;;;;;;9.33;6.00;;;;;;;14.51;35.73;151298.19;1784678;80;20990;-63
2022/03/26 11:11:09;;;;;;;8.80;5.47;;;;;;;14.50;35.33;151296.91;1784821;80;21061;-63
2022/03/26 11:13:50;;;;;;;14.35;6.45;;;;;;;14.49;35.21;151294.30;1784366;80;21503;-61
2022/03/26 11:16:35;;;;;;;15.85;5.47;;;;;;;14.48;35.02;151291.70;1784443;80;21666;-63
2022/03/26 11:19:22;;;;;;;9.28;5.30;;;;;;;14.45;34.83;151283.84;1784270;79;20879;-63
2022/03/26 11:22:25;;;;;;;8.80;5.17;;;;;;;14.40;34.76;151272.17;1784933;80;20946;-62